sensor_id;sensor_type;location;lat;lon;timestamp;pressure;altitude;pressure_sealevel;temperature;humidity
53546;BME280;39432;51.902;10.844;2023-12-04T00:01:43;99811.72;;;-0.41;100.00
53546;BME280;39432;51.902;10.844;2023-12-04T00:04:34;99806.63;;;-0.36;100.00
53546;BME280;39432;51.902;10.844;2023-12-04T00:07:26;99813.19;;;-0.53;100.00
53546;BME280;39432;51.902;10.844;2023-12-04T00:10:17;99805.66;;;-0.58;100.00
53546;BME280;39432;51.902;10.844;2023-12-04T00:13:07;99804.72;;;-0.88;100.00
53546;BME280;39432;51.902;10.844;2023-12-04T00:15:57;99797.25;;;-0.77;100.00
53546;BME280;39432;51.902;10.844;2023-12-04T00:18:47;99793.84;;;-0.94;100.00
53546;BME280;39432;51.902;10.844;2023-12-04T00:21:37;99783.53;;;-0.45;100.00
53546;BME280;39432;51.902;10.844;2023-12-04T00:24:30;99777.25;;;-0.22;100.00
53546;BME280;39432;51.902;10.844;2023-12-04T00:27:21;99774.91;;;0.12;100.00
53546;BME280;39432;51.902;10.844;2023-12-04T00:30:14;99767.56;;;0.06;100.00
53546;BME280;39432;51.902;10.844;2023-12-04T00:33:04;99765.63;;;0.00;100.00
53546;BME280;39432;51.902;10.844;2023-12-04T00:35:54;99765.97;;;0.26;100.00
53546;BME280;39432;51.902;10.844;2023-12-04T00:38:44;99763.94;;;-0.01;100.00
53546;BME280;39432;51.902;10.844;2023-12-04T00:41:37;99757.81;;;0.05;100.00
53546;BME280;39432;51.902;10.844;2023-12-04T00:44:27;99756.28;;;0.47;100.00
53546;BME280;39432;51.902;10.844;2023-12-04T00:47:18;99749.47;;;0.30;100.00
53546;BME280;39432;51.902;10.844;2023-12-04T00:50:10;99754.53;;;0.75;100.00
53546;BME280;39432;51.902;10.844;2023-12-04T00:53:03;99744.28;;;0.86;100.00
53546;BME280;39432;51.902;10.844;2023-12-04T00:55:54;99750.91;;;0.47;100.00
53546;BME280;39432;51.902;10.844;2023-12-04T00:58:46;99743.00;;;1.24;100.00
53546;BME280;39432;51.902;10.844;2023-12-04T01:01:37;99744.19;;;0.94;100.00
53546;BME280;39432;51.902;10.844;2023-12-04T01:04:27;99744.16;;;0.72;100.00
53546;BME280;39432;51.902;10.844;2023-12-04T01:07:18;99733.94;;;0.83;100.00
53546;BME280;39432;51.902;10.844;2023-12-04T01:10:09;99743.09;;;0.52;100.00
53546;BME280;39432;51.902;10.844;2023-12-04T01:12:59;99731.78;;;1.21;100.00
53546;BME280;39432;51.902;10.844;2023-12-04T01:15:52;99726.75;;;1.11;100.00
53546;BME280;39432;51.902;10.844;2023-12-04T01:18:42;99723.13;;;1.25;100.00
53546;BME280;39432;51.902;10.844;2023-12-04T01:21:32;99725.16;;;1.45;100.00
53546;BME280;39432;51.902;10.844;2023-12-04T01:24:22;99719.09;;;1.43;100.00
53546;BME280;39432;51.902;10.844;2023-12-04T01:27:13;99706.47;;;1.71;100.00
53546;BME280;39432;51.902;10.844;2023-12-04T01:30:04;99709.19;;;2.19;100.00
53546;BME280;39432;51.902;10.844;2023-12-04T01:32:58;99710.63;;;2.63;100.00
53546;BME280;39432;51.902;10.844;2023-12-04T01:35:48;99709.09;;;2.47;100.00
53546;BME280;39432;51.902;10.844;2023-12-04T01:38:39;99716.78;;;1.61;100.00
53546;BME280;39432;51.902;10.844;2023-12-04T01:41:29;99715.00;;;2.09;100.00
53546;BME280;39432;51.902;10.844;2023-12-04T01:44:20;99706.38;;;1.58;100.00
53546;BME280;39432;51.902;10.844;2023-12-04T01:47:11;99707.34;;;1.22;100.00
53546;BME280;39432;51.902;10.844;2023-12-04T01:50:05;99694.91;;;1.21;100.00
53546;BME280;39432;51.902;10.844;2023-12-04T01:52:57;99696.56;;;1.78;100.00
53546;BME280;39432;51.902;10.844;2023-12-04T01:55:47;99691.09;;;2.61;100.00
53546;BME280;39432;51.902;10.844;2023-12-04T01:58:37;99684.38;;;1.54;100.00
53546;BME280;39432;51.902;10.844;2023-12-04T02:01:28;99683.19;;;1.36;100.00
53546;BME280;39432;51.902;10.844;2023-12-04T02:04:18;99696.28;;;2.08;100.00
53546;BME280;39432;51.902;10.844;2023-12-04T02:07:11;99692.56;;;2.09;100.00
53546;BME280;39432;51.902;10.844;2023-12-04T02:10:02;99689.00;;;1.67;100.00
53546;BME280;39432;51.902;10.844;2023-12-04T02:12:52;99682.94;;;1.30;100.00
53546;BME280;39432;51.902;10.844;2023-12-04T02:15:42;99683.88;;;1.16;100.00
53546;BME280;39432;51.902;10.844;2023-12-04T02:18:34;99683.44;;;1.41;100.00
53546;BME280;39432;51.902;10.844;2023-12-04T02:21:24;99671.13;;;0.82;100.00
53546;BME280;39432;51.902;10.844;2023-12-04T02:24:17;99677.66;;;1.44;100.00
53546;BME280;39432;51.902;10.844;2023-12-04T02:27:17;99675.06;;;0.58;100.00
53546;BME280;39432;51.902;10.844;2023-12-04T02:30:11;99668.13;;;0.92;100.00
53546;BME280;39432;51.902;10.844;2023-12-04T02:33:04;99666.13;;;1.00;100.00
53546;BME280;39432;51.902;10.844;2023-12-04T02:35:55;99655.13;;;0.95;100.00
53546;BME280;39432;51.902;10.844;2023-12-04T02:38:47;99659.78;;;0.87;100.00
53546;BME280;39432;51.902;10.844;2023-12-04T02:41:40;99647.56;;;1.12;100.00
53546;BME280;39432;51.902;10.844;2023-12-04T02:44:30;99646.84;;;0.75;100.00
53546;BME280;39432;51.902;10.844;2023-12-04T02:47:20;99643.25;;;0.47;100.00
53546;BME280;39432;51.902;10.844;2023-12-04T02:50:10;99633.25;;;0.84;100.00
53546;BME280;39432;51.902;10.844;2023-12-04T02:53:00;99629.13;;;0.88;100.00
53546;BME280;39432;51.902;10.844;2023-12-04T02:55:50;99632.22;;;0.85;100.00
53546;BME280;39432;51.902;10.844;2023-12-04T02:58:43;99634.88;;;0.78;100.00
53546;BME280;39432;51.902;10.844;2023-12-04T03:01:33;99627.38;;;0.52;100.00
53546;BME280;39432;51.902;10.844;2023-12-04T03:04:24;99622.50;;;0.62;100.00
53546;BME280;39432;51.902;10.844;2023-12-04T03:07:14;99613.03;;;0.45;100.00
53546;BME280;39432;51.902;10.844;2023-12-04T03:10:07;99609.53;;;0.94;100.00
53546;BME280;39432;51.902;10.844;2023-12-04T03:12:58;99603.50;;;0.92;100.00
53546;BME280;39432;51.902;10.844;2023-12-04T03:15:50;99588.69;;;1.09;100.00
53546;BME280;39432;51.902;10.844;2023-12-04T03:18:41;99595.28;;;0.29;100.00
53546;BME280;39432;51.902;10.844;2023-12-04T03:21:31;99591.56;;;0.51;100.00
53546;BME280;39432;51.902;10.844;2023-12-04T03:24:21;99584.44;;;0.44;100.00
53546;BME280;39432;51.902;10.844;2023-12-04T03:27:11;99585.91;;;0.25;100.00
53546;BME280;39432;51.902;10.844;2023-12-04T03:30:02;99583.94;;;0.34;100.00
53546;BME280;39432;51.902;10.844;2023-12-04T03:32:55;99578.16;;;0.58;100.00
53546;BME280;39432;51.902;10.844;2023-12-04T03:35:45;99593.16;;;0.46;100.00
53546;BME280;39432;51.902;10.844;2023-12-04T03:38:35;99574.19;;;0.33;100.00
53546;BME280;39432;51.902;10.844;2023-12-04T03:41:25;99576.28;;;0.16;100.00
53546;BME280;39432;51.902;10.844;2023-12-04T03:44:16;99569.19;;;0.72;100.00
53546;BME280;39432;51.902;10.844;2023-12-04T03:47:06;99574.56;;;0.72;100.00
53546;BME280;39432;51.902;10.844;2023-12-04T03:49:59;99567.31;;;1.01;100.00
53546;BME280;39432;51.902;10.844;2023-12-04T03:52:49;99562.66;;;1.16;100.00
53546;BME280;39432;51.902;10.844;2023-12-04T03:55:39;99552.25;;;1.13;100.00
53546;BME280;39432;51.902;10.844;2023-12-04T03:58:29;99567.25;;;1.22;100.00
53546;BME280;39432;51.902;10.844;2023-12-04T04:01:19;99562.19;;;0.78;100.00
53546;BME280;39432;51.902;10.844;2023-12-04T04:04:09;99557.41;;;0.80;100.00
53546;BME280;39432;51.902;10.844;2023-12-04T04:07:02;99553.16;;;0.64;100.00
53546;BME280;39432;51.902;10.844;2023-12-04T04:09:53;99547.97;;;0.91;100.00
53546;BME280;39432;51.902;10.844;2023-12-04T04:12:43;99547.88;;;1.05;100.00
53546;BME280;39432;51.902;10.844;2023-12-04T04:15:33;99550.59;;;1.12;100.00
53546;BME280;39432;51.902;10.844;2023-12-04T04:18:23;99546.00;;;0.50;100.00
53546;BME280;39432;51.902;10.844;2023-12-04T04:21:14;99537.28;;;1.04;100.00
53546;BME280;39432;51.902;10.844;2023-12-04T04:24:07;99535.06;;;0.79;100.00
53546;BME280;39432;51.902;10.844;2023-12-04T04:26:57;99515.34;;;1.07;100.00
53546;BME280;39432;51.902;10.844;2023-12-04T04:29:47;99514.53;;;1.13;100.00
53546;BME280;39432;51.902;10.844;2023-12-04T04:32:37;99501.75;;;0.87;100.00
53546;BME280;39432;51.902;10.844;2023-12-04T04:35:28;99489.50;;;0.50;100.00
53546;BME280;39432;51.902;10.844;2023-12-04T04:38:18;99495.88;;;1.12;100.00
53546;BME280;39432;51.902;10.844;2023-12-04T04:41:15;99488.97;;;0.61;100.00
53546;BME280;39432;51.902;10.844;2023-12-04T04:44:05;99476.13;;;0.63;100.00
53546;BME280;39432;51.902;10.844;2023-12-04T04:46:55;99481.69;;;0.90;100.00
53546;BME280;39432;51.902;10.844;2023-12-04T04:49:45;99486.88;;;0.63;100.00
53546;BME280;39432;51.902;10.844;2023-12-04T04:52:36;99494.03;;;0.77;100.00
53546;BME280;39432;51.902;10.844;2023-12-04T04:55:26;99496.00;;;0.62;100.00
53546;BME280;39432;51.902;10.844;2023-12-04T04:58:37;99498.34;;;1.07;100.00
53546;BME280;39432;51.902;10.844;2023-12-04T05:01:27;99478.34;;;0.88;100.00
53546;BME280;39432;51.902;10.844;2023-12-04T05:04:17;99478.41;;;0.94;100.00
53546;BME280;39432;51.902;10.844;2023-12-04T05:07:08;99478.78;;;0.91;100.00
53546;BME280;39432;51.902;10.844;2023-12-04T05:09:58;99470.84;;;1.18;100.00
53546;BME280;39432;51.902;10.844;2023-12-04T05:12:53;99468.91;;;1.53;100.00
53546;BME280;39432;51.902;10.844;2023-12-04T05:15:46;99461.91;;;1.11;100.00
53546;BME280;39432;51.902;10.844;2023-12-04T05:18:36;99459.59;;;1.62;100.00
53546;BME280;39432;51.902;10.844;2023-12-04T05:21:26;99452.72;;;0.98;100.00
53546;BME280;39432;51.902;10.844;2023-12-04T05:24:17;99451.50;;;1.01;100.00
53546;BME280;39432;51.902;10.844;2023-12-04T05:27:07;99444.13;;;1.16;100.00
53546;BME280;39432;51.902;10.844;2023-12-04T05:29:57;99441.75;;;1.00;100.00
53546;BME280;39432;51.902;10.844;2023-12-04T05:32:50;99443.94;;;0.83;100.00
53546;BME280;39432;51.902;10.844;2023-12-04T05:35:42;99430.00;;;1.21;100.00
53546;BME280;39432;51.902;10.844;2023-12-04T05:38:32;99435.56;;;1.67;100.00
53546;BME280;39432;51.902;10.844;2023-12-04T05:41:22;99434.75;;;1.12;100.00
53546;BME280;39432;51.902;10.844;2023-12-04T05:44:12;99434.34;;;1.15;100.00
53546;BME280;39432;51.902;10.844;2023-12-04T05:47:02;99426.44;;;0.66;100.00
53546;BME280;39432;51.902;10.844;2023-12-04T05:49:58;99425.38;;;1.56;100.00
53546;BME280;39432;51.902;10.844;2023-12-04T05:52:48;99427.16;;;1.36;100.00
53546;BME280;39432;51.902;10.844;2023-12-04T05:55:38;99433.25;;;0.62;100.00
53546;BME280;39432;51.902;10.844;2023-12-04T05:58:28;99436.09;;;0.88;100.00
53546;BME280;39432;51.902;10.844;2023-12-04T06:01:18;99433.72;;;1.88;100.00
53546;BME280;39432;51.902;10.844;2023-12-04T06:04:08;99421.47;;;1.78;100.00
53546;BME280;39432;51.902;10.844;2023-12-04T06:07:01;99416.16;;;1.30;100.00
53546;BME280;39432;51.902;10.844;2023-12-04T06:09:51;99415.19;;;1.45;100.00
53546;BME280;39432;51.902;10.844;2023-12-04T06:12:42;99413.78;;;1.75;100.00
53546;BME280;39432;51.902;10.844;2023-12-04T06:15:32;99405.97;;;1.19;100.00
53546;BME280;39432;51.902;10.844;2023-12-04T06:18:22;99408.03;;;0.69;100.00
53546;BME280;39432;51.902;10.844;2023-12-04T06:21:15;99409.25;;;1.08;100.00
53546;BME280;39432;51.902;10.844;2023-12-04T06:24:09;99408.78;;;1.59;100.00
53546;BME280;39432;51.902;10.844;2023-12-04T06:27:00;99410.91;;;1.97;100.00
53546;BME280;39432;51.902;10.844;2023-12-04T06:29:52;99408.63;;;1.94;100.00
53546;BME280;39432;51.902;10.844;2023-12-04T06:32:43;99416.03;;;1.52;100.00
53546;BME280;39432;51.902;10.844;2023-12-04T06:35:34;99408.72;;;1.33;100.00
53546;BME280;39432;51.902;10.844;2023-12-04T06:38:25;99401.75;;;1.98;100.00
53546;BME280;39432;51.902;10.844;2023-12-04T06:41:18;99400.22;;;1.36;100.00
53546;BME280;39432;51.902;10.844;2023-12-04T06:44:10;99402.19;;;2.21;100.00
53546;BME280;39432;51.902;10.844;2023-12-04T06:47:01;99395.97;;;1.94;100.00
53546;BME280;39432;51.902;10.844;2023-12-04T06:49:51;99397.19;;;1.85;100.00
53546;BME280;39432;51.902;10.844;2023-12-04T06:52:41;99391.59;;;1.80;100.00
53546;BME280;39432;51.902;10.844;2023-12-04T06:55:32;99396.91;;;1.34;100.00
53546;BME280;39432;51.902;10.844;2023-12-04T06:58:24;99401.94;;;1.63;100.00
53546;BME280;39432;51.902;10.844;2023-12-04T07:01:14;99405.44;;;1.44;100.00
53546;BME280;39432;51.902;10.844;2023-12-04T07:04:05;99404.78;;;1.28;100.00
53546;BME280;39432;51.902;10.844;2023-12-04T07:06:57;99407.50;;;1.48;100.00
53546;BME280;39432;51.902;10.844;2023-12-04T07:09:52;99401.84;;;1.23;100.00
53546;BME280;39432;51.902;10.844;2023-12-04T07:12:42;99398.47;;;1.08;100.00
53546;BME280;39432;51.902;10.844;2023-12-04T07:15:35;99401.03;;;0.75;100.00
53546;BME280;39432;51.902;10.844;2023-12-04T07:18:25;99397.63;;;1.01;100.00
53546;BME280;39432;51.902;10.844;2023-12-04T07:21:16;99390.56;;;1.68;100.00
53546;BME280;39432;51.902;10.844;2023-12-04T07:24:06;99400.94;;;1.71;100.00
53546;BME280;39432;51.902;10.844;2023-12-04T07:26:57;99396.56;;;1.63;100.00
53546;BME280;39432;51.902;10.844;2023-12-04T07:29:47;99391.19;;;1.76;100.00
53546;BME280;39432;51.902;10.844;2023-12-04T07:32:39;99391.09;;;1.30;100.00
53546;BME280;39432;51.902;10.844;2023-12-04T07:35:30;99394.06;;;1.68;100.00
53546;BME280;39432;51.902;10.844;2023-12-04T07:38:21;99393.19;;;1.35;100.00
53546;BME280;39432;51.902;10.844;2023-12-04T07:41:15;99399.41;;;1.42;100.00
53546;BME280;39432;51.902;10.844;2023-12-04T07:44:05;99388.63;;;1.48;100.00
53546;BME280;39432;51.902;10.844;2023-12-04T07:46:55;99397.72;;;1.27;100.00
53546;BME280;39432;51.902;10.844;2023-12-04T07:49:48;99391.97;;;1.50;100.00
53546;BME280;39432;51.902;10.844;2023-12-04T07:52:38;99393.44;;;0.92;100.00
53546;BME280;39432;51.902;10.844;2023-12-04T07:55:28;99395.66;;;1.29;100.00
53546;BME280;39432;51.902;10.844;2023-12-04T07:58:18;99400.59;;;1.26;100.00
53546;BME280;39432;51.902;10.844;2023-12-04T08:01:08;99392.41;;;1.54;100.00
53546;BME280;39432;51.902;10.844;2023-12-04T08:03:59;99398.56;;;1.28;100.00
53546;BME280;39432;51.902;10.844;2023-12-04T08:06:52;99389.81;;;1.19;100.00
53546;BME280;39432;51.902;10.844;2023-12-04T08:09:42;99387.44;;;0.96;100.00
53546;BME280;39432;51.902;10.844;2023-12-04T08:12:33;99393.19;;;1.35;100.00
53546;BME280;39432;51.902;10.844;2023-12-04T08:15:23;99394.91;;;1.62;100.00
53546;BME280;39432;51.902;10.844;2023-12-04T08:18:13;99390.78;;;1.93;100.00
53546;BME280;39432;51.902;10.844;2023-12-04T08:21:04;99376.41;;;1.46;100.00
53546;BME280;39432;51.902;10.844;2023-12-04T08:23:57;99381.41;;;1.62;100.00
53546;BME280;39432;51.902;10.844;2023-12-04T08:26:48;99373.97;;;1.91;100.00
53546;BME280;39432;51.902;10.844;2023-12-04T08:29:39;99366.28;;;1.74;100.00
53546;BME280;39432;51.902;10.844;2023-12-04T08:32:29;99356.28;;;1.48;100.00
53546;BME280;39432;51.902;10.844;2023-12-04T08:35:19;99348.00;;;1.43;100.00
53546;BME280;39432;51.902;10.844;2023-12-04T08:38:09;99344.28;;;1.64;100.00
53546;BME280;39432;51.902;10.844;2023-12-04T08:41:03;99347.59;;;1.53;100.00
53546;BME280;39432;51.902;10.844;2023-12-04T08:43:53;99350.69;;;1.37;100.00
53546;BME280;39432;51.902;10.844;2023-12-04T08:46:44;99357.97;;;1.49;100.00
53546;BME280;39432;51.902;10.844;2023-12-04T08:49:34;99349.28;;;1.67;100.00
53546;BME280;39432;51.902;10.844;2023-12-04T08:52:35;99346.16;;;1.64;100.00
53546;BME280;39432;51.902;10.844;2023-12-04T08:55:28;99354.28;;;1.77;100.00
53546;BME280;39432;51.902;10.844;2023-12-04T08:58:21;99348.44;;;1.73;100.00
53546;BME280;39432;51.902;10.844;2023-12-04T09:01:12;99342.00;;;1.74;100.00
53546;BME280;39432;51.902;10.844;2023-12-04T09:04:02;99338.09;;;1.83;100.00
53546;BME280;39432;51.902;10.844;2023-12-04T09:06:52;99340.16;;;1.81;100.00
53546;BME280;39432;51.902;10.844;2023-12-04T09:09:45;99324.59;;;1.77;100.00
53546;BME280;39432;51.902;10.844;2023-12-04T09:12:36;99317.53;;;1.96;100.00
53546;BME280;39432;51.902;10.844;2023-12-04T09:15:29;99326.88;;;1.60;100.00
53546;BME280;39432;51.902;10.844;2023-12-04T09:18:19;99324.38;;;1.92;100.00
53546;BME280;39432;51.902;10.844;2023-12-04T09:21:09;99323.53;;;1.58;100.00
53546;BME280;39432;51.902;10.844;2023-12-04T09:24:00;99335.38;;;1.57;100.00
53546;BME280;39432;51.902;10.844;2023-12-04T09:26:50;99330.41;;;1.67;100.00
53546;BME280;39432;51.902;10.844;2023-12-04T09:29:40;99333.06;;;2.14;100.00
53546;BME280;39432;51.902;10.844;2023-12-04T09:32:33;99335.91;;;2.45;100.00
53546;BME280;39432;51.902;10.844;2023-12-04T09:35:26;99322.31;;;2.78;100.00
53546;BME280;39432;51.902;10.844;2023-12-04T09:38:16;99325.34;;;2.44;100.00
53546;BME280;39432;51.902;10.844;2023-12-04T09:41:09;99335.81;;;2.78;100.00
53546;BME280;39432;51.902;10.844;2023-12-04T09:44:00;99328.75;;;2.77;100.00
53546;BME280;39432;51.902;10.844;2023-12-04T09:46:51;99328.69;;;2.90;100.00
53546;BME280;39432;51.902;10.844;2023-12-04T09:49:44;99331.00;;;2.87;100.00
53546;BME280;39432;51.902;10.844;2023-12-04T09:52:35;99322.88;;;2.94;100.00
53546;BME280;39432;51.902;10.844;2023-12-04T09:55:25;99323.28;;;2.97;100.00
53546;BME280;39432;51.902;10.844;2023-12-04T09:58:19;99310.84;;;2.83;100.00
53546;BME280;39432;51.902;10.844;2023-12-04T10:01:10;99317.50;;;2.87;100.00
53546;BME280;39432;51.902;10.844;2023-12-04T10:04:01;99304.47;;;1.93;100.00
53546;BME280;39432;51.902;10.844;2023-12-04T10:06:56;99305.09;;;1.95;100.00
53546;BME280;39432;51.902;10.844;2023-12-04T10:09:46;99292.31;;;2.42;100.00
53546;BME280;39432;51.902;10.844;2023-12-04T10:12:36;99284.56;;;1.94;100.00
53546;BME280;39432;51.902;10.844;2023-12-04T10:15:26;99274.59;;;1.88;100.00
53546;BME280;39432;51.902;10.844;2023-12-04T10:18:26;99267.19;;;2.41;100.00
53546;BME280;39432;51.902;10.844;2023-12-04T10:21:17;99276.88;;;1.64;100.00
53546;BME280;39432;51.902;10.844;2023-12-04T10:24:27;99271.97;;;2.39;100.00
53546;BME280;39432;51.902;10.844;2023-12-04T10:27:17;99267.53;;;1.07;100.00
53546;BME280;39432;51.902;10.844;2023-12-04T10:30:08;99267.84;;;2.36;100.00
53546;BME280;39432;51.902;10.844;2023-12-04T10:33:03;99271.09;;;2.52;100.00
53546;BME280;39432;51.902;10.844;2023-12-04T10:35:55;99265.97;;;3.20;100.00
53546;BME280;39432;51.902;10.844;2023-12-04T10:38:45;99261.41;;;2.82;100.00
53546;BME280;39432;51.902;10.844;2023-12-04T10:41:38;99261.63;;;3.19;100.00
53546;BME280;39432;51.902;10.844;2023-12-04T10:44:29;99259.88;;;2.55;100.00
53546;BME280;39432;51.902;10.844;2023-12-04T10:47:21;99254.69;;;2.98;100.00
53546;BME280;39432;51.902;10.844;2023-12-04T10:50:12;99251.66;;;3.13;100.00
53546;BME280;39432;51.902;10.844;2023-12-04T10:53:03;99250.75;;;3.26;100.00
53546;BME280;39432;51.902;10.844;2023-12-04T10:55:56;99242.31;;;2.77;100.00
53546;BME280;39432;51.902;10.844;2023-12-04T10:58:51;99245.94;;;2.96;100.00
53546;BME280;39432;51.902;10.844;2023-12-04T11:01:44;99244.16;;;3.15;100.00
53546;BME280;39432;51.902;10.844;2023-12-04T11:04:35;99242.34;;;3.34;100.00
53546;BME280;39432;51.902;10.844;2023-12-04T11:07:26;99238.91;;;3.52;100.00
53546;BME280;39432;51.902;10.844;2023-12-04T11:10:41;99247.56;;;3.35;100.00
53546;BME280;39432;51.902;10.844;2023-12-04T11:13:35;99242.38;;;3.59;100.00
53546;BME280;39432;51.902;10.844;2023-12-04T11:16:34;99240.19;;;3.17;100.00
53546;BME280;39432;51.902;10.844;2023-12-04T11:19:29;99240.91;;;3.63;100.00
53546;BME280;39432;51.902;10.844;2023-12-04T11:22:24;99238.06;;;3.94;100.00
53546;BME280;39432;51.902;10.844;2023-12-04T11:25:15;99236.31;;;4.07;100.00
53546;BME280;39432;51.902;10.844;2023-12-04T11:28:06;99229.41;;;3.42;100.00
53546;BME280;39432;51.902;10.844;2023-12-04T11:30:56;99226.25;;;2.51;100.00
53546;BME280;39432;51.902;10.844;2023-12-04T11:33:50;99223.41;;;2.77;100.00
53546;BME280;39432;51.902;10.844;2023-12-04T11:36:41;99219.72;;;2.72;100.00
53546;BME280;39432;51.902;10.844;2023-12-04T11:39:34;99210.97;;;4.01;100.00
53546;BME280;39432;51.902;10.844;2023-12-04T11:42:25;99208.31;;;4.31;100.00
53546;BME280;39432;51.902;10.844;2023-12-04T11:45:19;99196.06;;;2.99;100.00
53546;BME280;39432;51.902;10.844;2023-12-04T11:48:10;99200.66;;;3.91;100.00
53546;BME280;39432;51.902;10.844;2023-12-04T11:51:04;99197.28;;;3.53;100.00
53546;BME280;39432;51.902;10.844;2023-12-04T11:53:55;99200.16;;;3.58;100.00
53546;BME280;39432;51.902;10.844;2023-12-04T11:56:57;99174.59;;;4.45;100.00
53546;BME280;39432;51.902;10.844;2023-12-04T11:59:48;99175.97;;;4.36;100.00
53546;BME280;39432;51.902;10.844;2023-12-04T12:02:39;99173.34;;;4.60;100.00
53546;BME280;39432;51.902;10.844;2023-12-04T12:05:50;99164.41;;;3.74;100.00
53546;BME280;39432;51.902;10.844;2023-12-04T12:08:44;99159.59;;;3.76;100.00
53546;BME280;39432;51.902;10.844;2023-12-04T12:11:35;99153.22;;;3.46;100.00
53546;BME280;39432;51.902;10.844;2023-12-04T12:14:26;99148.53;;;2.59;100.00
53546;BME280;39432;51.902;10.844;2023-12-04T12:17:16;99155.63;;;2.54;100.00
53546;BME280;39432;51.902;10.844;2023-12-04T12:20:08;99147.81;;;1.94;100.00
53546;BME280;39432;51.902;10.844;2023-12-04T12:22:58;99149.88;;;1.99;100.00
53546;BME280;39432;51.902;10.844;2023-12-04T12:25:52;99128.06;;;2.00;100.00
53546;BME280;39432;51.902;10.844;2023-12-04T12:28:45;99132.28;;;2.66;100.00
53546;BME280;39432;51.902;10.844;2023-12-04T12:31:37;99125.81;;;2.99;100.00
53546;BME280;39432;51.902;10.844;2023-12-04T12:34:27;99125.06;;;3.35;100.00
53546;BME280;39432;51.902;10.844;2023-12-04T12:37:19;99118.81;;;3.16;100.00
53546;BME280;39432;51.902;10.844;2023-12-04T12:40:09;99110.56;;;3.29;100.00
53546;BME280;39432;51.902;10.844;2023-12-04T12:43:06;99109.88;;;3.15;100.00
53546;BME280;39432;51.902;10.844;2023-12-04T12:45:57;99091.63;;;3.29;100.00
53546;BME280;39432;51.902;10.844;2023-12-04T12:48:47;99094.81;;;2.76;100.00
53546;BME280;39432;51.902;10.844;2023-12-04T12:51:37;99097.84;;;3.11;100.00
53546;BME280;39432;51.902;10.844;2023-12-04T12:54:28;99091.78;;;2.91;100.00
53546;BME280;39432;51.902;10.844;2023-12-04T12:57:20;99085.78;;;3.14;100.00
53546;BME280;39432;51.902;10.844;2023-12-04T13:00:14;99089.41;;;3.01;100.00
53546;BME280;39432;51.902;10.844;2023-12-04T13:03:05;99086.09;;;3.24;100.00
53546;BME280;39432;51.902;10.844;2023-12-04T13:05:56;99080.78;;;3.11;100.00
53546;BME280;39432;51.902;10.844;2023-12-04T13:08:47;99072.75;;;2.79;100.00
53546;BME280;39432;51.902;10.844;2023-12-04T13:11:37;99070.53;;;2.45;100.00
53546;BME280;39432;51.902;10.844;2023-12-04T13:14:27;99062.59;;;2.81;100.00
53546;BME280;39432;51.902;10.844;2023-12-04T13:17:20;99063.28;;;2.70;100.00
53546;BME280;39432;51.902;10.844;2023-12-04T13:20:11;99060.09;;;2.55;100.00
53546;BME280;39432;51.902;10.844;2023-12-04T13:23:02;99044.16;;;2.15;100.00
53546;BME280;39432;51.902;10.844;2023-12-04T13:25:53;99037.72;;;2.16;100.00
53546;BME280;39432;51.902;10.844;2023-12-04T13:28:43;99032.19;;;2.36;100.00
53546;BME280;39432;51.902;10.844;2023-12-04T13:31:34;99028.34;;;2.25;100.00
53546;BME280;39432;51.902;10.844;2023-12-04T13:34:27;99028.94;;;2.27;100.00
53546;BME280;39432;51.902;10.844;2023-12-04T13:37:17;99029.00;;;1.82;100.00
53546;BME280;39432;51.902;10.844;2023-12-04T13:40:08;99027.63;;;2.05;100.00
53546;BME280;39432;51.902;10.844;2023-12-04T13:43:04;99028.47;;;2.30;100.00
53546;BME280;39432;51.902;10.844;2023-12-04T13:46:07;99027.31;;;1.88;100.00
53546;BME280;39432;51.902;10.844;2023-12-04T13:48:59;99030.34;;;1.60;100.00
53546;BME280;39432;51.902;10.844;2023-12-04T13:51:51;99027.75;;;1.34;100.00
53546;BME280;39432;51.902;10.844;2023-12-04T13:54:42;99029.47;;;1.08;100.00
53546;BME280;39432;51.902;10.844;2023-12-04T13:57:35;99027.50;;;1.42;100.00
53546;BME280;39432;51.902;10.844;2023-12-04T14:00:37;99026.66;;;1.48;100.00
53546;BME280;39432;51.902;10.844;2023-12-04T14:03:27;99016.91;;;1.92;100.00
53546;BME280;39432;51.902;10.844;2023-12-04T14:06:18;99016.66;;;2.31;100.00
53546;BME280;39432;51.902;10.844;2023-12-04T14:09:11;99004.91;;;1.88;100.00
53546;BME280;39432;51.902;10.844;2023-12-04T14:12:03;99005.91;;;1.55;100.00
53546;BME280;39432;51.902;10.844;2023-12-04T14:14:53;99005.53;;;1.45;100.00
53546;BME280;39432;51.902;10.844;2023-12-04T14:17:46;98994.84;;;1.18;100.00
53546;BME280;39432;51.902;10.844;2023-12-04T14:20:36;98995.91;;;1.62;100.00
53546;BME280;39432;51.902;10.844;2023-12-04T14:23:26;98992.19;;;1.05;100.00
53546;BME280;39432;51.902;10.844;2023-12-04T14:26:19;98997.47;;;1.31;100.00
53546;BME280;39432;51.902;10.844;2023-12-04T14:29:09;98996.09;;;1.22;100.00
53546;BME280;39432;51.902;10.844;2023-12-04T14:32:00;99010.69;;;0.75;100.00
53546;BME280;39432;51.902;10.844;2023-12-04T14:34:51;99007.38;;;0.20;100.00
53546;BME280;39432;51.902;10.844;2023-12-04T14:37:41;99011.41;;;-0.31;100.00
53546;BME280;39432;51.902;10.844;2023-12-04T14:40:31;99008.38;;;-0.75;100.00
53546;BME280;39432;51.902;10.844;2023-12-04T14:43:24;99009.31;;;-0.42;100.00
53546;BME280;39432;51.902;10.844;2023-12-04T14:46:15;99013.44;;;-0.46;100.00
53546;BME280;39432;51.902;10.844;2023-12-04T14:49:05;99004.41;;;-0.32;100.00
53546;BME280;39432;51.902;10.844;2023-12-04T14:51:57;98994.53;;;-0.05;100.00
53546;BME280;39432;51.902;10.844;2023-12-04T14:54:48;98994.75;;;0.01;100.00
53546;BME280;39432;51.902;10.844;2023-12-04T14:58:01;98994.97;;;0.25;100.00